sensor_id;sensor_type;location;lat;lon;timestamp;pressure;altitude;pressure_sealevel;temperature;humidity
10946;BME280;5525;42.648;23.368;2023-07-13T00:01:15;94904.81;;;21.51;100.00
10946;BME280;5525;42.648;23.368;2023-07-13T00:03:42;94906.72;;;21.40;100.00
10946;BME280;5525;42.648;23.368;2023-07-13T00:06:09;94903.59;;;21.35;100.00
10946;BME280;5525;42.648;23.368;2023-07-13T00:08:35;94903.97;;;21.40;100.00
10946;BME280;5525;42.648;23.368;2023-07-13T00:11:03;94901.22;;;21.33;100.00
10946;BME280;5525;42.648;23.368;2023-07-13T00:13:32;94890.22;;;21.33;100.00
10946;BME280;5525;42.648;23.368;2023-07-13T00:15:59;94897.19;;;21.13;100.00
10946;BME280;5525;42.648;23.368;2023-07-13T00:18:27;94897.19;;;21.10;100.00
10946;BME280;5525;42.648;23.368;2023-07-13T00:20:55;94894.41;;;21.03;100.00
10946;BME280;5525;42.648;23.368;2023-07-13T00:23:30;94898.69;;;21.00;100.00
10946;BME280;5525;42.648;23.368;2023-07-13T00:25:59;94898.72;;;21.04;100.00
10946;BME280;5525;42.648;23.368;2023-07-13T00:28:25;94904.88;;;20.90;100.00
10946;BME280;5525;42.648;23.368;2023-07-13T00:30:52;94894.81;;;21.08;100.00
10946;BME280;5525;42.648;23.368;2023-07-13T00:33:19;94888.22;;;21.20;100.00
10946;BME280;5525;42.648;23.368;2023-07-13T00:35:47;94883.91;;;21.22;100.00
10946;BME280;5525;42.648;23.368;2023-07-13T00:38:14;94885.22;;;21.63;100.00
10946;BME280;5525;42.648;23.368;2023-07-13T00:40:41;94880.56;;;21.71;100.00
10946;BME280;5525;42.648;23.368;2023-07-13T00:43:11;94884.16;;;21.86;100.00
10946;BME280;5525;42.648;23.368;2023-07-13T00:46:10;94885.31;;;21.88;100.00
10946;BME280;5525;42.648;23.368;2023-07-13T00:48:38;94886.91;;;21.86;100.00
10946;BME280;5525;42.648;23.368;2023-07-13T00:51:06;94888.50;;;21.94;100.00
10946;BME280;5525;42.648;23.368;2023-07-13T00:53:34;94886.50;;;21.87;100.00
10946;BME280;5525;42.648;23.368;2023-07-13T00:56:01;94878.66;;;21.86;100.00
10946;BME280;5525;42.648;23.368;2023-07-13T00:58:29;94878.19;;;21.66;100.00
10946;BME280;5525;42.648;23.368;2023-07-13T01:00:56;94882.00;;;21.37;100.00
10946;BME280;5525;42.648;23.368;2023-07-13T01:03:22;94882.41;;;20.74;100.00
10946;BME280;5525;42.648;23.368;2023-07-13T01:05:50;94878.31;;;21.01;100.00
10946;BME280;5525;42.648;23.368;2023-07-13T01:08:18;94879.88;;;21.02;100.00
10946;BME280;5525;42.648;23.368;2023-07-13T01:10:51;94874.31;;;20.92;100.00
10946;BME280;5525;42.648;23.368;2023-07-13T01:13:18;94871.63;;;20.95;100.00
10946;BME280;5525;42.648;23.368;2023-07-13T01:15:46;94876.63;;;20.90;100.00
10946;BME280;5525;42.648;23.368;2023-07-13T01:18:17;94876.16;;;20.74;100.00
10946;BME280;5525;42.648;23.368;2023-07-13T01:20:51;94878.75;;;20.53;100.00
10946;BME280;5525;42.648;23.368;2023-07-13T01:23:17;94877.16;;;20.45;100.00
10946;BME280;5525;42.648;23.368;2023-07-13T01:25:45;94878.72;;;20.46;100.00
10946;BME280;5525;42.648;23.368;2023-07-13T01:28:12;94872.91;;;20.54;100.00
10946;BME280;5525;42.648;23.368;2023-07-13T01:30:40;94876.09;;;20.63;100.00
10946;BME280;5525;42.648;23.368;2023-07-13T01:33:07;94873.81;;;20.76;100.00
10946;BME280;5525;42.648;23.368;2023-07-13T01:35:35;94878.13;;;20.73;100.00
10946;BME280;5525;42.648;23.368;2023-07-13T01:38:04;94879.00;;;20.91;100.00
10946;BME280;5525;42.648;23.368;2023-07-13T01:40:31;94880.16;;;20.83;100.00
10946;BME280;5525;42.648;23.368;2023-07-13T01:42:58;94881.38;;;20.89;100.00
10946;BME280;5525;42.648;23.368;2023-07-13T01:45:25;94887.22;;;20.88;100.00
10946;BME280;5525;42.648;23.368;2023-07-13T01:47:51;94876.19;;;20.81;100.00
10946;BME280;5525;42.648;23.368;2023-07-13T01:50:18;94873.00;;;20.72;100.00
10946;BME280;5525;42.648;23.368;2023-07-13T01:52:45;94867.88;;;20.63;100.00
10946;BME280;5525;42.648;23.368;2023-07-13T01:55:13;94863.97;;;20.68;100.00
10946;BME280;5525;42.648;23.368;2023-07-13T01:57:39;94870.34;;;20.86;100.00
10946;BME280;5525;42.648;23.368;2023-07-13T02:00:09;94864.13;;;20.92;100.00
10946;BME280;5525;42.648;23.368;2023-07-13T02:02:36;94869.34;;;21.08;100.00
10946;BME280;5525;42.648;23.368;2023-07-13T02:05:02;94871.63;;;20.99;100.00
10946;BME280;5525;42.648;23.368;2023-07-13T02:07:29;94871.53;;;20.88;100.00
10946;BME280;5525;42.648;23.368;2023-07-13T02:09:56;94875.44;;;20.84;100.00
10946;BME280;5525;42.648;23.368;2023-07-13T02:12:24;94880.56;;;20.89;100.00
10946;BME280;5525;42.648;23.368;2023-07-13T02:14:51;94877.50;;;20.97;100.00
10946;BME280;5525;42.648;23.368;2023-07-13T02:17:17;94880.91;;;20.84;100.00
10946;BME280;5525;42.648;23.368;2023-07-13T02:19:44;94877.81;;;20.89;100.00
10946;BME280;5525;42.648;23.368;2023-07-13T02:22:11;94880.91;;;20.84;100.00
10946;BME280;5525;42.648;23.368;2023-07-13T02:24:37;94874.16;;;20.67;100.00
10946;BME280;5525;42.648;23.368;2023-07-13T02:27:05;94877.22;;;20.55;100.00
10946;BME280;5525;42.648;23.368;2023-07-13T02:29:33;94884.56;;;20.44;100.00
10946;BME280;5525;42.648;23.368;2023-07-13T02:31:59;94875.41;;;20.23;100.00
10946;BME280;5525;42.648;23.368;2023-07-13T02:34:26;94894.53;;;20.16;100.00
10946;BME280;5525;42.648;23.368;2023-07-13T02:36:53;94897.13;;;20.05;100.00
10946;BME280;5525;42.648;23.368;2023-07-13T02:39:19;94895.84;;;19.92;100.00
10946;BME280;5525;42.648;23.368;2023-07-13T02:41:46;94905.31;;;19.98;100.00
10946;BME280;5525;42.648;23.368;2023-07-13T02:44:13;94897.56;;;20.07;100.00
10946;BME280;5525;42.648;23.368;2023-07-13T02:46:41;94894.53;;;20.16;100.00
10946;BME280;5525;42.648;23.368;2023-07-13T02:49:08;94890.28;;;20.22;100.00
10946;BME280;5525;42.648;23.368;2023-07-13T02:51:34;94883.00;;;19.99;100.00
10946;BME280;5525;42.648;23.368;2023-07-13T02:54:01;94896.66;;;19.96;100.00
10946;BME280;5525;42.648;23.368;2023-07-13T02:56:30;94888.19;;;19.71;100.00
10946;BME280;5525;42.648;23.368;2023-07-13T02:58:57;94894.69;;;19.56;100.00
10946;BME280;5525;42.648;23.368;2023-07-13T03:01:24;94893.13;;;19.59;100.00
10946;BME280;5525;42.648;23.368;2023-07-13T03:03:52;94900.53;;;19.55;100.00
10946;BME280;5525;42.648;23.368;2023-07-13T03:06:19;94894.69;;;19.56;100.00
10946;BME280;5525;42.648;23.368;2023-07-13T03:08:46;94893.50;;;19.57;100.00
10946;BME280;5525;42.648;23.368;2023-07-13T03:11:16;94880.66;;;19.61;100.00
10946;BME280;5525;42.648;23.368;2023-07-13T03:13:43;94907.22;;;19.57;100.00
10946;BME280;5525;42.648;23.368;2023-07-13T03:16:11;94904.34;;;19.47;100.00
10946;BME280;5525;42.648;23.368;2023-07-13T03:18:38;94899.88;;;19.65;100.00
10946;BME280;5525;42.648;23.368;2023-07-13T03:21:06;94905.53;;;19.82;100.00
10946;BME280;5525;42.648;23.368;2023-07-13T03:23:33;94913.00;;;19.85;100.00
10946;BME280;5525;42.648;23.368;2023-07-13T03:26:04;94909.94;;;19.90;100.00
10946;BME280;5525;42.648;23.368;2023-07-13T03:28:31;94907.53;;;19.85;100.00
10946;BME280;5525;42.648;23.368;2023-07-13T03:31:04;94901.66;;;19.87;100.00
10946;BME280;5525;42.648;23.368;2023-07-13T03:33:31;94906.44;;;19.93;100.00
10946;BME280;5525;42.648;23.368;2023-07-13T03:35:58;94912.84;;;19.68;100.00
10946;BME280;5525;42.648;23.368;2023-07-13T03:38:26;94917.34;;;19.86;100.00
10946;BME280;5525;42.648;23.368;2023-07-13T03:40:53;94914.50;;;19.79;100.00
10946;BME280;5525;42.648;23.368;2023-07-13T03:43:20;94923.16;;;19.81;100.00
10946;BME280;5525;42.648;23.368;2023-07-13T03:45:47;94913.84;;;19.89;100.00
10946;BME280;5525;42.648;23.368;2023-07-13T03:48:14;94911.75;;;19.79;100.00
10946;BME280;5525;42.648;23.368;2023-07-13T03:50:41;94914.28;;;19.95;100.00
10946;BME280;5525;42.648;23.368;2023-07-13T03:53:08;94913.19;;;20.06;100.00
10946;BME280;5525;42.648;23.368;2023-07-13T03:55:36;94906.56;;;20.07;100.00
10946;BME280;5525;42.648;23.368;2023-07-13T03:58:24;94912.59;;;20.24;100.00
10946;BME280;5525;42.648;23.368;2023-07-13T04:00:52;94911.63;;;20.46;100.00
10946;BME280;5525;42.648;23.368;2023-07-13T04:03:18;94901.16;;;20.58;100.00
10946;BME280;5525;42.648;23.368;2023-07-13T04:05:45;94899.78;;;20.89;100.00
10946;BME280;5525;42.648;23.368;2023-07-13T04:08:12;94905.50;;;21.24;100.00
10946;BME280;5525;42.648;23.368;2023-07-13T04:10:41;94912.34;;;21.61;100.00
10946;BME280;5525;42.648;23.368;2023-07-13T04:13:07;94908.38;;;21.59;100.00
10946;BME280;5525;42.648;23.368;2023-07-13T04:15:34;94907.38;;;22.20;100.00
10946;BME280;5525;42.648;23.368;2023-07-13T04:18:01;94909.34;;;23.14;100.00
10946;BME280;5525;42.648;23.368;2023-07-13T04:20:29;94913.16;;;23.55;100.00
10946;BME280;5525;42.648;23.368;2023-07-13T04:22:56;94917.88;;;24.34;100.00
10946;BME280;5525;42.648;23.368;2023-07-13T04:25:23;94928.44;;;24.46;100.00
10946;BME280;5525;42.648;23.368;2023-07-13T04:27:52;94925.22;;;25.43;100.00
10946;BME280;5525;42.648;23.368;2023-07-13T04:30:19;94923.56;;;26.12;100.00
10946;BME280;5525;42.648;23.368;2023-07-13T04:32:46;94932.91;;;26.52;100.00
10946;BME280;5525;42.648;23.368;2023-07-13T04:35:13;94931.16;;;27.11;100.00
10946;BME280;5525;42.648;23.368;2023-07-13T04:37:40;94928.03;;;27.09;100.00
10946;BME280;5525;42.648;23.368;2023-07-13T04:40:08;94938.41;;;27.90;100.00
10946;BME280;5525;42.648;23.368;2023-07-13T04:42:37;94944.19;;;28.35;99.01
10946;BME280;5525;42.648;23.368;2023-07-13T04:45:06;94943.06;;;29.00;92.03
10946;BME280;5525;42.648;23.368;2023-07-13T04:47:33;94959.91;;;29.74;87.82
10946;BME280;5525;42.648;23.368;2023-07-13T04:50:00;94954.66;;;30.04;82.98
10946;BME280;5525;42.648;23.368;2023-07-13T04:52:27;94957.91;;;31.32;76.31
10946;BME280;5525;42.648;23.368;2023-07-13T04:54:53;94963.00;;;31.80;71.01
10946;BME280;5525;42.648;23.368;2023-07-13T04:57:20;94969.91;;;31.88;70.54
10946;BME280;5525;42.648;23.368;2023-07-13T04:59:47;94977.84;;;32.85;66.13
10946;BME280;5525;42.648;23.368;2023-07-13T05:02:15;94977.63;;;32.70;66.09
10946;BME280;5525;42.648;23.368;2023-07-13T05:04:41;94976.97;;;32.66;66.65
10946;BME280;5525;42.648;23.368;2023-07-13T05:07:09;94966.63;;;32.45;65.56
10946;BME280;5525;42.648;23.368;2023-07-13T05:09:36;94978.59;;;32.45;66.88
10946;BME280;5525;42.648;23.368;2023-07-13T05:12:05;94985.09;;;32.73;68.23
10946;BME280;5525;42.648;23.368;2023-07-13T05:14:31;94975.16;;;33.42;61.48
10946;BME280;5525;42.648;23.368;2023-07-13T05:16:58;94983.31;;;33.28;63.89
10946;BME280;5525;42.648;23.368;2023-07-13T05:19:26;94988.81;;;32.92;65.26
10946;BME280;5525;42.648;23.368;2023-07-13T05:21:53;94986.38;;;32.50;66.38
10946;BME280;5525;42.648;23.368;2023-07-13T05:24:20;94992.59;;;33.07;64.06
10946;BME280;5525;42.648;23.368;2023-07-13T05:26:47;94996.50;;;34.66;55.61
10946;BME280;5525;42.648;23.368;2023-07-13T05:29:14;94993.22;;;35.36;54.65
10946;BME280;5525;42.648;23.368;2023-07-13T05:31:40;94994.22;;;34.47;53.46
10946;BME280;5525;42.648;23.368;2023-07-13T05:34:07;94993.16;;;35.04;52.67
10946;BME280;5525;42.648;23.368;2023-07-13T05:36:35;94988.38;;;36.08;48.90
10946;BME280;5525;42.648;23.368;2023-07-13T05:39:02;94996.94;;;37.09;45.28
10946;BME280;5525;42.648;23.368;2023-07-13T05:41:29;95010.81;;;36.98;44.41
10946;BME280;5525;42.648;23.368;2023-07-13T05:43:56;95009.34;;;36.74;43.69
10946;BME280;5525;42.648;23.368;2023-07-13T05:46:23;95003.72;;;36.74;42.90
10946;BME280;5525;42.648;23.368;2023-07-13T05:48:50;95001.59;;;37.27;42.78
10946;BME280;5525;42.648;23.368;2023-07-13T05:51:16;95007.13;;;37.07;42.35
10946;BME280;5525;42.648;23.368;2023-07-13T05:53:44;95002.03;;;39.01;40.41
10946;BME280;5525;42.648;23.368;2023-07-13T05:56:11;94996.66;;;37.57;43.04
10946;BME280;5525;42.648;23.368;2023-07-13T05:58:38;95001.69;;;37.18;43.98
10946;BME280;5525;42.648;23.368;2023-07-13T06:01:10;95009.56;;;36.99;44.88
10946;BME280;5525;42.648;23.368;2023-07-13T06:03:37;95002.28;;;37.37;44.05
10946;BME280;5525;42.648;23.368;2023-07-13T06:06:04;94994.13;;;37.73;41.42
10946;BME280;5525;42.648;23.368;2023-07-13T06:08:31;95000.72;;;39.27;38.54
10946;BME280;5525;42.648;23.368;2023-07-13T06:11:07;94981.97;;;39.61;37.91
10946;BME280;5525;42.648;23.368;2023-07-13T06:13:34;94982.50;;;39.34;38.65
10946;BME280;5525;42.648;23.368;2023-07-13T06:16:02;94997.22;;;38.15;41.32
10946;BME280;5525;42.648;23.368;2023-07-13T06:18:31;94999.50;;;39.70;39.76
10946;BME280;5525;42.648;23.368;2023-07-13T06:20:57;95001.34;;;41.24;37.17
10946;BME280;5525;42.648;23.368;2023-07-13T06:23:24;95006.94;;;40.91;36.25
10946;BME280;5525;42.648;23.368;2023-07-13T06:25:51;95012.63;;;41.96;33.88
10946;BME280;5525;42.648;23.368;2023-07-13T06:28:20;95009.16;;;42.25;32.17
10946;BME280;5525;42.648;23.368;2023-07-13T06:30:46;95010.00;;;43.12;30.93
10946;BME280;5525;42.648;23.368;2023-07-13T06:33:13;95013.78;;;43.90;28.81
10946;BME280;5525;42.648;23.368;2023-07-13T06:35:40;95012.06;;;44.30;28.37
10946;BME280;5525;42.648;23.368;2023-07-13T06:38:06;95008.69;;;43.18;30.15
10946;BME280;5525;42.648;23.368;2023-07-13T06:40:33;95006.97;;;44.60;29.24
10946;BME280;5525;42.648;23.368;2023-07-13T06:42:59;95008.28;;;44.40;28.87
10946;BME280;5525;42.648;23.368;2023-07-13T06:45:28;95014.16;;;45.22;27.99
10946;BME280;5525;42.648;23.368;2023-07-13T06:47:55;95001.06;;;44.39;28.36
10946;BME280;5525;42.648;23.368;2023-07-13T06:50:21;95007.41;;;44.69;27.83
10946;BME280;5525;42.648;23.368;2023-07-13T06:52:48;94999.84;;;44.72;27.10
10946;BME280;5525;42.648;23.368;2023-07-13T06:55:15;95004.44;;;45.12;25.38
10946;BME280;5525;42.648;23.368;2023-07-13T06:57:41;95007.41;;;46.14;25.02
10946;BME280;5525;42.648;23.368;2023-07-13T07:00:09;95001.53;;;45.18;25.55
10946;BME280;5525;42.648;23.368;2023-07-13T07:02:37;95006.81;;;45.90;25.63
10946;BME280;5525;42.648;23.368;2023-07-13T07:05:05;94995.97;;;44.51;27.36
10946;BME280;5525;42.648;23.368;2023-07-13T07:07:31;95007.66;;;45.98;25.72
10946;BME280;5525;42.648;23.368;2023-07-13T07:09:58;95014.03;;;44.11;27.24
10946;BME280;5525;42.648;23.368;2023-07-13T07:12:24;95007.78;;;46.84;25.39
10946;BME280;5525;42.648;23.368;2023-07-13T07:14:51;95015.59;;;47.17;24.43
10946;BME280;5525;42.648;23.368;2023-07-13T07:17:18;95011.13;;;47.08;24.36
10946;BME280;5525;42.648;23.368;2023-07-13T07:19:46;95001.84;;;45.14;25.21
10946;BME280;5525;42.648;23.368;2023-07-13T07:22:12;95003.06;;;45.95;26.02
10946;BME280;5525;42.648;23.368;2023-07-13T07:24:39;95008.91;;;47.14;22.85
10946;BME280;5525;42.648;23.368;2023-07-13T07:27:06;95006.31;;;45.73;23.97
10946;BME280;5525;42.648;23.368;2023-07-13T07:29:33;95002.09;;;47.04;22.87
10946;BME280;5525;42.648;23.368;2023-07-13T07:32:00;95001.91;;;48.97;21.36
10946;BME280;5525;42.648;23.368;2023-07-13T07:34:26;95010.09;;;48.93;20.88
10946;BME280;5525;42.648;23.368;2023-07-13T07:36:56;95009.19;;;49.71;20.17
10946;BME280;5525;42.648;23.368;2023-07-13T07:39:23;94995.50;;;49.27;20.73
10946;BME280;5525;42.648;23.368;2023-07-13T07:41:50;94999.06;;;49.12;20.83
10946;BME280;5525;42.648;23.368;2023-07-13T07:44:16;94974.50;;;48.81;21.12
10946;BME280;5525;42.648;23.368;2023-07-13T07:46:43;94987.44;;;49.10;20.78
10946;BME280;5525;42.648;23.368;2023-07-13T07:49:10;94993.81;;;49.31;20.15
10946;BME280;5525;42.648;23.368;2023-07-13T07:51:37;94988.09;;;50.21;20.04
10946;BME280;5525;42.648;23.368;2023-07-13T07:54:05;94985.13;;;47.81;21.37
10946;BME280;5525;42.648;23.368;2023-07-13T07:56:32;94986.16;;;50.31;19.50
10946;BME280;5525;42.648;23.368;2023-07-13T07:58:59;94986.72;;;48.81;20.79
10946;BME280;5525;42.648;23.368;2023-07-13T08:01:25;94979.47;;;48.17;20.18
10946;BME280;5525;42.648;23.368;2023-07-13T08:03:52;94972.34;;;47.20;21.81
10946;BME280;5525;42.648;23.368;2023-07-13T08:06:19;94957.00;;;47.51;21.62
10946;BME280;5525;42.648;23.368;2023-07-13T08:08:47;94963.81;;;47.90;20.93
10946;BME280;5525;42.648;23.368;2023-07-13T08:11:18;94961.41;;;49.08;20.38
10946;BME280;5525;42.648;23.368;2023-07-13T08:13:44;94957.47;;;49.79;19.97
10946;BME280;5525;42.648;23.368;2023-07-13T08:16:11;94955.38;;;48.76;20.03
10946;BME280;5525;42.648;23.368;2023-07-13T08:18:38;94953.44;;;49.52;20.31
10946;BME280;5525;42.648;23.368;2023-07-13T08:21:05;94946.09;;;50.33;19.34
10946;BME280;5525;42.648;23.368;2023-07-13T08:23:32;94953.00;;;50.45;19.53
10946;BME280;5525;42.648;23.368;2023-07-13T08:25:58;94944.56;;;50.40;19.38
10946;BME280;5525;42.648;23.368;2023-07-13T08:28:28;94937.75;;;49.75;19.97
10946;BME280;5525;42.648;23.368;2023-07-13T08:30:55;94942.75;;;51.39;18.83
10946;BME280;5525;42.648;23.368;2023-07-13T08:33:22;94948.91;;;51.03;18.51
10946;BME280;5525;42.648;23.368;2023-07-13T08:35:50;94942.47;;;50.18;18.24
10946;BME280;5525;42.648;23.368;2023-07-13T08:38:18;94938.91;;;50.65;18.74
10946;BME280;5525;42.648;23.368;2023-07-13T08:40:49;94949.06;;;51.69;17.88
10946;BME280;5525;42.648;23.368;2023-07-13T08:43:18;94939.84;;;51.14;18.52
10946;BME280;5525;42.648;23.368;2023-07-13T08:45:51;94933.41;;;51.80;18.24
10946;BME280;5525;42.648;23.368;2023-07-13T08:48:23;94940.00;;;52.15;17.78
10946;BME280;5525;42.648;23.368;2023-07-13T08:50:56;94926.25;;;52.06;17.69
10946;BME280;5525;42.648;23.368;2023-07-13T08:53:27;94918.75;;;51.85;17.69
10946;BME280;5525;42.648;23.368;2023-07-13T08:55:58;94928.22;;;48.84;20.14
10946;BME280;5525;42.648;23.368;2023-07-13T08:58:27;94930.84;;;49.56;20.04
10946;BME280;5525;42.648;23.368;2023-07-13T09:01:02;94932.00;;;51.32;18.95
10946;BME280;5525;42.648;23.368;2023-07-13T09:03:37;94944.41;;;52.16;18.22
10946;BME280;5525;42.648;23.368;2023-07-13T09:06:08;94945.75;;;51.48;18.35
10946;BME280;5525;42.648;23.368;2023-07-13T09:08:49;94948.41;;;50.20;18.62
10946;BME280;5525;42.648;23.368;2023-07-13T09:11:29;94965.50;;;52.01;17.86
10946;BME280;5525;42.648;23.368;2023-07-13T09:14:06;94966.91;;;52.51;17.13
10946;BME280;5525;42.648;23.368;2023-07-13T09:16:44;94959.34;;;51.23;18.13
10946;BME280;5525;42.648;23.368;2023-07-13T09:19:18;94968.69;;;50.99;17.62
10946;BME280;5525;42.648;23.368;2023-07-13T09:21:48;94956.59;;;52.07;18.13
10946;BME280;5525;42.648;23.368;2023-07-13T09:24:29;94952.91;;;51.08;18.45
10946;BME280;5525;42.648;23.368;2023-07-13T09:26:58;94963.06;;;51.73;17.44
10946;BME280;5525;42.648;23.368;2023-07-13T09:29:29;94966.78;;;52.25;17.52
10946;BME280;5525;42.648;23.368;2023-07-13T09:32:02;94965.22;;;52.82;17.01
10946;BME280;5525;42.648;23.368;2023-07-13T09:34:30;94949.34;;;49.17;18.90
10946;BME280;5525;42.648;23.368;2023-07-13T09:36:58;94951.16;;;51.69;17.73
10946;BME280;5525;42.648;23.368;2023-07-13T09:39:28;94945.06;;;50.69;18.21
10946;BME280;5525;42.648;23.368;2023-07-13T09:42:01;94954.25;;;52.13;17.69
10946;BME280;5525;42.648;23.368;2023-07-13T09:44:35;94944.47;;;51.42;17.64
10946;BME280;5525;42.648;23.368;2023-07-13T09:47:15;94941.66;;;50.95;17.96
10946;BME280;5525;42.648;23.368;2023-07-13T09:49:42;94935.28;;;50.56;18.58
10946;BME280;5525;42.648;23.368;2023-07-13T09:52:13;94923.28;;;50.83;18.45
10946;BME280;5525;42.648;23.368;2023-07-13T09:54:46;94916.13;;;49.59;19.80
10946;BME280;5525;42.648;23.368;2023-07-13T09:57:15;94907.97;;;48.90;20.15
10946;BME280;5525;42.648;23.368;2023-07-13T09:59:45;94906.88;;;48.42;20.21
10946;BME280;5525;42.648;23.368;2023-07-13T10:02:28;94903.84;;;48.55;19.76
10946;BME280;5525;42.648;23.368;2023-07-13T10:04:59;94898.41;;;48.95;19.71
10946;BME280;5525;42.648;23.368;2023-07-13T10:07:27;94908.28;;;50.52;17.91
10946;BME280;5525;42.648;23.368;2023-07-13T10:09:55;94900.72;;;51.11;17.50
10946;BME280;5525;42.648;23.368;2023-07-13T10:12:22;94904.06;;;51.25;17.56
10946;BME280;5525;42.648;23.368;2023-07-13T10:14:51;94894.09;;;50.54;17.90
10946;BME280;5525;42.648;23.368;2023-07-13T10:17:27;94888.66;;;48.90;20.19
10946;BME280;5525;42.648;23.368;2023-07-13T10:19:59;94892.16;;;50.96;19.01
10946;BME280;5525;42.648;23.368;2023-07-13T10:22:39;94895.50;;;52.42;17.44
10946;BME280;5525;42.648;23.368;2023-07-13T10:25:15;94899.56;;;52.05;17.34
10946;BME280;5525;42.648;23.368;2023-07-13T10:27:43;94894.88;;;49.40;18.46
10946;BME280;5525;42.648;23.368;2023-07-13T10:30:14;94883.47;;;50.17;17.41
10946;BME280;5525;42.648;23.368;2023-07-13T10:32:44;94885.59;;;51.03;16.93
10946;BME280;5525;42.648;23.368;2023-07-13T10:35:14;94889.41;;;51.06;17.05
10946;BME280;5525;42.648;23.368;2023-07-13T10:37:45;94880.41;;;50.15;17.84
10946;BME280;5525;42.648;23.368;2023-07-13T10:40:18;94867.94;;;50.75;17.32
10946;BME280;5525;42.648;23.368;2023-07-13T10:42:50;94869.06;;;50.79;16.65
10946;BME280;5525;42.648;23.368;2023-07-13T10:45:20;94868.06;;;49.82;16.81
10946;BME280;5525;42.648;23.368;2023-07-13T10:47:51;94858.81;;;49.99;17.36
10946;BME280;5525;42.648;23.368;2023-07-13T10:50:22;94846.03;;;50.47;17.10
10946;BME280;5525;42.648;23.368;2023-07-13T10:52:51;94847.22;;;50.36;16.98
10946;BME280;5525;42.648;23.368;2023-07-13T10:55:36;94843.59;;;51.49;16.11
10946;BME280;5525;42.648;23.368;2023-07-13T10:58:12;94824.88;;;50.12;14.25
10946;BME280;5525;42.648;23.368;2023-07-13T11:00:47;94821.88;;;48.09;14.91
10946;BME280;5525;42.648;23.368;2023-07-13T11:03:19;94820.00;;;48.62;15.04
10946;BME280;5525;42.648;23.368;2023-07-13T11:05:49;94821.72;;;48.15;14.88
10946;BME280;5525;42.648;23.368;2023-07-13T11:08:20;94811.31;;;46.92;15.72
10946;BME280;5525;42.648;23.368;2023-07-13T11:10:53;94811.75;;;47.73;15.21
10946;BME280;5525;42.648;23.368;2023-07-13T11:13:38;94811.25;;;49.21;14.87
10946;BME280;5525;42.648;23.368;2023-07-13T11:16:34;94795.44;;;47.32;15.89
10946;BME280;5525;42.648;23.368;2023-07-13T11:25:00;94791.63;;;47.29;17.10
10946;BME280;5525;42.648;23.368;2023-07-13T11:27:41;94784.25;;;46.72;17.12
10946;BME280;5525;42.648;23.368;2023-07-13T11:30:31;94783.78;;;46.61;20.28
10946;BME280;5525;42.648;23.368;2023-07-13T11:33:18;94781.06;;;45.62;21.05
10946;BME280;5525;42.648;23.368;2023-07-13T11:35:53;94772.44;;;44.52;21.28
10946;BME280;5525;42.648;23.368;2023-07-13T11:38:29;94765.88;;;44.25;22.77
10946;BME280;5525;42.648;23.368;2023-07-13T11:40:58;94758.59;;;43.74;22.88
10946;BME280;5525;42.648;23.368;2023-07-13T11:43:28;94763.22;;;43.96;21.97
10946;BME280;5525;42.648;23.368;2023-07-13T11:45:55;94761.75;;;43.28;22.45
10946;BME280;5525;42.648;23.368;2023-07-13T11:48:25;94768.97;;;43.53;21.96
10946;BME280;5525;42.648;23.368;2023-07-13T11:50:58;94764.66;;;43.22;23.03
10946;BME280;5525;42.648;23.368;2023-07-13T11:53:30;94762.78;;;42.77;22.93
10946;BME280;5525;42.648;23.368;2023-07-13T11:56:00;94755.50;;;41.30;24.20
10946;BME280;5525;42.648;23.368;2023-07-13T11:58:27;94754.88;;;40.36;24.72
10946;BME280;5525;42.648;23.368;2023-07-13T12:00:58;94749.16;;;39.97;25.72
10946;BME280;5525;42.648;23.368;2023-07-13T12:03:26;94742.94;;;39.71;26.08
10946;BME280;5525;42.648;23.368;2023-07-13T12:05:57;94734.97;;;39.64;26.71
10946;BME280;5525;42.648;23.368;2023-07-13T12:08:25;94733.69;;;39.59;26.67
10946;BME280;5525;42.648;23.368;2023-07-13T12:11:05;94723.81;;;39.33;27.18
10946;BME280;5525;42.648;23.368;2023-07-13T12:13:37;94728.97;;;38.87;24.58
10946;BME280;5525;42.648;23.368;2023-07-13T12:16:13;94726.94;;;38.50;25.38
10946;BME280;5525;42.648;23.368;2023-07-13T12:18:43;94719.47;;;38.47;25.73
10946;BME280;5525;42.648;23.368;2023-07-13T12:21:13;94714.09;;;38.44;25.58
10946;BME280;5525;42.648;23.368;2023-07-13T12:23:43;94710.59;;;38.54;24.93
10946;BME280;5525;42.648;23.368;2023-07-13T12:26:12;94710.09;;;38.61;24.88
10946;BME280;5525;42.648;23.368;2023-07-13T12:28:45;94702.28;;;38.88;24.70
10946;BME280;5525;42.648;23.368;2023-07-13T12:31:30;94700.44;;;38.79;25.60
10946;BME280;5525;42.648;23.368;2023-07-13T12:33:59;94692.22;;;38.75;25.75
10946;BME280;5525;42.648;23.368;2023-07-13T12:36:29;94693.94;;;38.62;26.07
10946;BME280;5525;42.648;23.368;2023-07-13T12:39:01;94689.03;;;38.57;25.46
10946;BME280;5525;42.648;23.368;2023-07-13T12:41:31;94694.81;;;38.79;25.57
10946;BME280;5525;42.648;23.368;2023-07-13T12:43:59;94684.00;;;38.78;24.94
10946;BME280;5525;42.648;23.368;2023-07-13T12:46:27;94678.47;;;38.52;27.29
10946;BME280;5525;42.648;23.368;2023-07-13T12:48:57;94681.97;;;38.41;28.15
10946;BME280;5525;42.648;23.368;2023-07-13T12:51:26;94672.34;;;38.17;28.74
10946;BME280;5525;42.648;23.368;2023-07-13T12:53:57;94676.38;;;38.10;28.82
10946;BME280;5525;42.648;23.368;2023-07-13T12:56:26;94669.75;;;38.13;28.89
10946;BME280;5525;42.648;23.368;2023-07-13T12:58:58;94669.59;;;38.28;29.12
10946;BME280;5525;42.648;23.368;2023-07-13T13:01:28;94680.25;;;38.13;29.32
10946;BME280;5525;42.648;23.368;2023-07-13T13:03:56;94669.59;;;37.97;28.43
10946;BME280;5525;42.648;23.368;2023-07-13T13:06:25;94670.84;;;37.65;28.37
10946;BME280;5525;42.648;23.368;2023-07-13T13:08:52;94657.34;;;37.69;28.67
10946;BME280;5525;42.648;23.368;2023-07-13T13:11:21;94662.06;;;37.83;28.52
10946;BME280;5525;42.648;23.368;2023-07-13T13:13:49;94652.75;;;37.71;28.41